sensor_id;sensor_type;location;lat;lon;timestamp;pressure;altitude;pressure_sealevel;temperature;humidity
5755;BME280;2902;42.130;24.732;2022-12-07T00:01:51;99691.13;;;6.97;93.54
5755;BME280;2902;42.130;24.732;2022-12-07T00:04:18;99687.47;;;6.98;93.97
5755;BME280;2902;42.130;24.732;2022-12-07T00:06:46;99689.66;;;6.95;93.72
5755;BME280;2902;42.130;24.732;2022-12-07T00:09:15;99685.53;;;6.92;93.86
5755;BME280;2902;42.130;24.732;2022-12-07T00:11:42;99688.81;;;6.94;94.04
5755;BME280;2902;42.130;24.732;2022-12-07T00:14:13;99689.97;;;6.92;93.51
5755;BME280;2902;42.130;24.732;2022-12-07T00:16:41;99687.69;;;6.81;93.28
5755;BME280;2902;42.130;24.732;2022-12-07T00:19:10;99687.03;;;6.71;93.45
5755;BME280;2902;42.130;24.732;2022-12-07T00:21:37;99683.25;;;6.65;93.97
5755;BME280;2902;42.130;24.732;2022-12-07T00:24:04;99682.09;;;6.68;94.29
5755;BME280;2902;42.130;24.732;2022-12-07T00:26:33;99677.97;;;6.65;93.93
5755;BME280;2902;42.130;24.732;2022-12-07T00:29:02;99686.72;;;6.74;93.28
5755;BME280;2902;42.130;24.732;2022-12-07T00:31:32;99691.84;;;6.67;92.97
5755;BME280;2902;42.130;24.732;2022-12-07T00:34:00;99692.47;;;6.61;92.50
5755;BME280;2902;42.130;24.732;2022-12-07T00:36:28;99698.91;;;6.59;92.50
5755;BME280;2902;42.130;24.732;2022-12-07T00:38:55;99692.84;;;6.58;93.55
5755;BME280;2902;42.130;24.732;2022-12-07T00:41:25;99691.16;;;6.57;93.35
5755;BME280;2902;42.130;24.732;2022-12-07T00:43:52;99693.66;;;6.59;93.13
5755;BME280;2902;42.130;24.732;2022-12-07T00:46:20;99688.03;;;6.62;92.84
5755;BME280;2902;42.130;24.732;2022-12-07T00:48:48;99687.72;;;6.65;92.84
5755;BME280;2902;42.130;24.732;2022-12-07T00:51:17;99682.09;;;6.68;93.22
5755;BME280;2902;42.130;24.732;2022-12-07T00:53:44;99681.91;;;6.69;93.26
5755;BME280;2902;42.130;24.732;2022-12-07T00:56:12;99689.03;;;6.69;92.48
5755;BME280;2902;42.130;24.732;2022-12-07T00:58:39;99681.13;;;6.61;93.73
5755;BME280;2902;42.130;24.732;2022-12-07T01:01:08;99686.72;;;6.58;94.09
5755;BME280;2902;42.130;24.732;2022-12-07T01:03:35;99684.72;;;6.60;94.59
5755;BME280;2902;42.130;24.732;2022-12-07T01:06:04;99675.50;;;6.64;94.56
5755;BME280;2902;42.130;24.732;2022-12-07T01:08:31;99668.91;;;6.60;94.40
5755;BME280;2902;42.130;24.732;2022-12-07T01:10:59;99669.72;;;6.60;94.64
5755;BME280;2902;42.130;24.732;2022-12-07T01:13:26;99673.19;;;6.61;95.02
5755;BME280;2902;42.130;24.732;2022-12-07T01:15:56;99668.25;;;6.58;94.22
5755;BME280;2902;42.130;24.732;2022-12-07T01:18:23;99663.97;;;6.49;94.85
5755;BME280;2902;42.130;24.732;2022-12-07T01:20:57;99665.47;;;6.35;95.64
5755;BME280;2902;42.130;24.732;2022-12-07T01:23:25;99666.94;;;6.30;96.08
5755;BME280;2902;42.130;24.732;2022-12-07T01:25:55;99661.66;;;6.30;96.59
5755;BME280;2902;42.130;24.732;2022-12-07T01:28:21;99663.31;;;6.31;95.77
5755;BME280;2902;42.130;24.732;2022-12-07T01:30:55;99659.50;;;6.25;96.80
5755;BME280;2902;42.130;24.732;2022-12-07T01:33:22;99654.75;;;6.29;97.06
5755;BME280;2902;42.130;24.732;2022-12-07T01:35:49;99652.44;;;6.34;96.56
5755;BME280;2902;42.130;24.732;2022-12-07T01:38:15;99646.16;;;6.35;96.34
5755;BME280;2902;42.130;24.732;2022-12-07T01:40:44;99646.00;;;6.36;97.33
5755;BME280;2902;42.130;24.732;2022-12-07T01:43:15;99641.22;;;6.40;95.70
5755;BME280;2902;42.130;24.732;2022-12-07T01:45:43;99637.09;;;6.37;95.41
5755;BME280;2902;42.130;24.732;2022-12-07T01:48:12;99634.28;;;6.39;95.99
5755;BME280;2902;42.130;24.732;2022-12-07T01:50:40;99631.00;;;6.45;95.69
5755;BME280;2902;42.130;24.732;2022-12-07T01:53:10;99634.28;;;6.47;95.01
5755;BME280;2902;42.130;24.732;2022-12-07T01:55:40;99637.44;;;6.50;94.64
5755;BME280;2902;42.130;24.732;2022-12-07T01:58:09;99640.22;;;6.49;94.19
5755;BME280;2902;42.130;24.732;2022-12-07T02:00:37;99628.69;;;6.42;94.86
5755;BME280;2902;42.130;24.732;2022-12-07T02:03:07;99640.88;;;6.43;95.29
5755;BME280;2902;42.130;24.732;2022-12-07T02:05:37;99636.91;;;6.47;94.50
5755;BME280;2902;42.130;24.732;2022-12-07T02:08:05;99624.56;;;6.39;93.94
5755;BME280;2902;42.130;24.732;2022-12-07T02:10:33;99632.47;;;6.47;94.22
5755;BME280;2902;42.130;24.732;2022-12-07T02:13:03;99620.44;;;6.37;94.12
5755;BME280;2902;42.130;24.732;2022-12-07T02:18:29;99625.72;;;6.53;94.45
5755;BME280;2902;42.130;24.732;2022-12-07T02:21:06;99627.03;;;6.57;94.64
5755;BME280;2902;42.130;24.732;2022-12-07T02:27:16;99621.75;;;6.57;93.46
5755;BME280;2902;42.130;24.732;2022-12-07T02:29:51;99613.84;;;6.57;93.85
5755;BME280;2902;42.130;24.732;2022-12-07T02:32:24;99613.31;;;6.53;93.62
5755;BME280;2902;42.130;24.732;2022-12-07T02:34:58;99611.53;;;6.54;93.83
5755;BME280;2902;42.130;24.732;2022-12-07T02:37:35;99614.81;;;6.56;93.68
5755;BME280;2902;42.130;24.732;2022-12-07T02:40:08;99611.53;;;6.54;93.51
5755;BME280;2902;42.130;24.732;2022-12-07T02:42:40;99607.56;;;6.50;94.11
5755;BME280;2902;42.130;24.732;2022-12-07T02:45:13;99606.09;;;6.39;93.71
5755;BME280;2902;42.130;24.732;2022-12-07T02:47:41;99608.91;;;6.22;93.53
5755;BME280;2902;42.130;24.732;2022-12-07T02:50:10;99611.72;;;6.12;94.20
5755;BME280;2902;42.130;24.732;2022-12-07T02:52:37;99601.00;;;6.06;94.82
5755;BME280;2902;42.130;24.732;2022-12-07T02:55:04;99602.31;;;6.10;95.78
5755;BME280;2902;42.130;24.732;2022-12-07T02:57:44;99598.38;;;6.14;95.52
5755;BME280;2902;42.130;24.732;2022-12-07T03:00:18;99589.13;;;6.18;94.61
5755;BME280;2902;42.130;24.732;2022-12-07T03:02:51;99573.31;;;6.18;94.85
5755;BME280;2902;42.130;24.732;2022-12-07T03:05:41;99594.41;;;6.18;93.73
5755;BME280;2902;42.130;24.732;2022-12-07T03:08:13;99585.19;;;6.14;94.28
5755;BME280;2902;42.130;24.732;2022-12-07T03:10:48;99587.50;;;6.17;95.12
5755;BME280;2902;42.130;24.732;2022-12-07T03:13:23;99586.50;;;6.10;94.93
5755;BME280;2902;42.130;24.732;2022-12-07T03:15:58;99587.50;;;6.17;95.89
5755;BME280;2902;42.130;24.732;2022-12-07T03:18:30;99591.44;;;6.13;95.40
5755;BME280;2902;42.130;24.732;2022-12-07T03:21:01;99598.03;;;6.17;95.20
5755;BME280;2902;42.130;24.732;2022-12-07T03:23:31;99607.28;;;6.21;95.82
5755;BME280;2902;42.130;24.732;2022-12-07T03:26:00;99602.63;;;6.23;95.53
5755;BME280;2902;42.130;24.732;2022-12-07T03:28:32;99603.31;;;6.25;95.06
5755;BME280;2902;42.130;24.732;2022-12-07T03:31:05;99597.88;;;6.26;94.41
5755;BME280;2902;42.130;24.732;2022-12-07T03:33:40;99606.44;;;6.28;95.41
5755;BME280;2902;42.130;24.732;2022-12-07T03:36:11;99603.31;;;6.33;94.46
5755;BME280;2902;42.130;24.732;2022-12-07T03:38:45;99604.94;;;6.34;94.31
5755;BME280;2902;42.130;24.732;2022-12-07T03:41:18;99601.97;;;6.37;94.19
5755;BME280;2902;42.130;24.732;2022-12-07T03:43:49;99596.38;;;6.40;94.76
5755;BME280;2902;42.130;24.732;2022-12-07T03:46:23;99604.63;;;6.37;94.64
5755;BME280;2902;42.130;24.732;2022-12-07T03:48:56;99592.44;;;6.36;93.98
5755;BME280;2902;42.130;24.732;2022-12-07T03:51:29;99599.34;;;6.37;94.49
5755;BME280;2902;42.130;24.732;2022-12-07T03:54:02;99595.72;;;6.38;94.09
5755;BME280;2902;42.130;24.732;2022-12-07T03:56:34;99584.31;;;6.37;93.87
5755;BME280;2902;42.130;24.732;2022-12-07T03:59:01;99586.81;;;6.39;94.37
5755;BME280;2902;42.130;24.732;2022-12-07T04:01:29;99589.09;;;6.42;93.60
5755;BME280;2902;42.130;24.732;2022-12-07T04:03:57;99590.25;;;6.47;93.86
5755;BME280;2902;42.130;24.732;2022-12-07T04:06:24;99594.69;;;6.47;92.98
5755;BME280;2902;42.130;24.732;2022-12-07T04:08:50;99592.72;;;6.49;93.29
5755;BME280;2902;42.130;24.732;2022-12-07T04:11:17;99583.34;;;6.46;93.06
5755;BME280;2902;42.130;24.732;2022-12-07T04:13:44;99592.44;;;6.36;92.73
5755;BME280;2902;42.130;24.732;2022-12-07T04:16:30;99587.78;;;6.46;94.45
5755;BME280;2902;42.130;24.732;2022-12-07T04:18:56;99583.84;;;6.42;92.62
5755;BME280;2902;42.130;24.732;2022-12-07T04:21:23;99586.97;;;6.37;93.23
5755;BME280;2902;42.130;24.732;2022-12-07T04:23:49;99581.69;;;6.29;93.42
5755;BME280;2902;42.130;24.732;2022-12-07T04:26:16;99574.78;;;6.28;93.08
5755;BME280;2902;42.130;24.732;2022-12-07T04:28:43;99574.31;;;6.25;93.15
5755;BME280;2902;42.130;24.732;2022-12-07T04:31:09;99572.97;;;6.21;93.76
5755;BME280;2902;42.130;24.732;2022-12-07T04:33:37;99576.09;;;6.16;93.46
5755;BME280;2902;42.130;24.732;2022-12-07T04:36:05;99574.94;;;6.19;94.31
5755;BME280;2902;42.130;24.732;2022-12-07T04:38:32;99575.94;;;6.26;94.76
5755;BME280;2902;42.130;24.732;2022-12-07T04:41:04;99576.25;;;6.23;94.13
5755;BME280;2902;42.130;24.732;2022-12-07T04:43:31;99574.31;;;6.17;93.37
5755;BME280;2902;42.130;24.732;2022-12-07T04:45:58;99570.34;;;6.13;93.53
5755;BME280;2902;42.130;24.732;2022-12-07T04:48:24;99573.31;;;6.18;94.51
5755;BME280;2902;42.130;24.732;2022-12-07T04:50:52;99569.69;;;6.19;93.03
5755;BME280;2902;42.130;24.732;2022-12-07T04:53:19;99573.16;;;6.19;94.02
5755;BME280;2902;42.130;24.732;2022-12-07T04:55:46;99574.94;;;6.19;93.72
5755;BME280;2902;42.130;24.732;2022-12-07T04:58:13;99570.34;;;6.21;93.70
5755;BME280;2902;42.130;24.732;2022-12-07T05:00:40;99576.94;;;6.25;93.88
5755;BME280;2902;42.130;24.732;2022-12-07T05:03:07;99578.91;;;6.31;93.67
5755;BME280;2902;42.130;24.732;2022-12-07T05:05:34;99576.94;;;6.33;93.28
5755;BME280;2902;42.130;24.732;2022-12-07T05:08:02;99582.22;;;6.33;92.65
5755;BME280;2902;42.130;24.732;2022-12-07T05:10:28;99590.13;;;6.25;93.00
5755;BME280;2902;42.130;24.732;2022-12-07T05:12:55;99583.38;;;6.14;92.26
5755;BME280;2902;42.130;24.732;2022-12-07T05:15:22;99584.84;;;6.17;93.86
5755;BME280;2902;42.130;24.732;2022-12-07T05:17:48;99580.22;;;6.19;94.18
5755;BME280;2902;42.130;24.732;2022-12-07T05:20:17;99578.91;;;6.15;93.63
5755;BME280;2902;42.130;24.732;2022-12-07T05:22:44;99580.06;;;6.20;93.41
5755;BME280;2902;42.130;24.732;2022-12-07T05:25:12;99581.53;;;6.23;92.67
5755;BME280;2902;42.130;24.732;2022-12-07T05:27:39;99589.13;;;6.26;92.68
5755;BME280;2902;42.130;24.732;2022-12-07T05:30:06;99592.44;;;6.20;92.71
5755;BME280;2902;42.130;24.732;2022-12-07T05:32:33;99595.88;;;6.20;92.47
5755;BME280;2902;42.130;24.732;2022-12-07T05:35:01;99592.44;;;6.20;92.97
5755;BME280;2902;42.130;24.732;2022-12-07T05:37:28;99607.28;;;6.21;92.13
5755;BME280;2902;42.130;24.732;2022-12-07T05:39:54;99604.31;;;6.16;92.59
5755;BME280;2902;42.130;24.732;2022-12-07T05:42:23;99595.56;;;6.15;93.15
5755;BME280;2902;42.130;24.732;2022-12-07T05:44:49;99594.72;;;6.23;93.22
5755;BME280;2902;42.130;24.732;2022-12-07T05:47:16;99588.50;;;6.24;93.25
5755;BME280;2902;42.130;24.732;2022-12-07T05:49:43;99588.13;;;6.19;93.96
5755;BME280;2902;42.130;24.732;2022-12-07T05:52:10;99590.78;;;6.19;94.05
5755;BME280;2902;42.130;24.732;2022-12-07T05:54:36;99584.84;;;6.17;94.15
5755;BME280;2902;42.130;24.732;2022-12-07T05:57:03;99583.84;;;6.18;94.95
5755;BME280;2902;42.130;24.732;2022-12-07T05:59:31;99606.28;;;6.14;95.64
5755;BME280;2902;42.130;24.732;2022-12-07T06:01:59;99601.66;;;6.16;95.83
5755;BME280;2902;42.130;24.732;2022-12-07T06:04:28;99600.50;;;6.18;95.84
5755;BME280;2902;42.130;24.732;2022-12-07T06:06:56;99597.03;;;6.26;95.15
5755;BME280;2902;42.130;24.732;2022-12-07T06:09:23;99596.38;;;6.32;95.72
5755;BME280;2902;42.130;24.732;2022-12-07T06:11:50;99607.25;;;6.37;96.53
5755;BME280;2902;42.130;24.732;2022-12-07T06:14:36;99602.16;;;6.35;96.50
5755;BME280;2902;42.130;24.732;2022-12-07T06:17:03;99602.78;;;6.45;96.23
5755;BME280;2902;42.130;24.732;2022-12-07T06:19:29;99602.59;;;6.63;97.22
5755;BME280;2902;42.130;24.732;2022-12-07T06:21:56;99600.53;;;6.89;97.20
5755;BME280;2902;42.130;24.732;2022-12-07T06:24:23;99607.22;;;7.07;94.49
5755;BME280;2902;42.130;24.732;2022-12-07T06:26:50;99606.66;;;7.28;93.66
5755;BME280;2902;42.130;24.732;2022-12-07T06:29:17;99608.59;;;7.34;91.49
5755;BME280;2902;42.130;24.732;2022-12-07T06:31:45;99605.38;;;7.24;91.89
5755;BME280;2902;42.130;24.732;2022-12-07T06:34:14;99608.50;;;7.19;92.31
5755;BME280;2902;42.130;24.732;2022-12-07T06:36:42;99595.84;;;7.15;92.17
5755;BME280;2902;42.130;24.732;2022-12-07T06:39:09;99615.59;;;7.27;92.57
5755;BME280;2902;42.130;24.732;2022-12-07T06:41:36;99620.88;;;7.27;91.55
5755;BME280;2902;42.130;24.732;2022-12-07T06:44:03;99613.22;;;7.40;93.39
5755;BME280;2902;42.130;24.732;2022-12-07T06:46:30;99619.13;;;7.42;91.44
5755;BME280;2902;42.130;24.732;2022-12-07T06:48:58;99622.44;;;7.44;91.60
5755;BME280;2902;42.130;24.732;2022-12-07T06:51:25;99620.56;;;7.52;92.01
5755;BME280;2902;42.130;24.732;2022-12-07T06:53:52;99624.03;;;7.53;91.87
5755;BME280;2902;42.130;24.732;2022-12-07T06:56:19;99621.53;;;7.59;92.24
5755;BME280;2902;42.130;24.732;2022-12-07T06:58:45;99615.38;;;7.67;90.66
5755;BME280;2902;42.130;24.732;2022-12-07T07:01:14;99614.69;;;7.73;91.48
5755;BME280;2902;42.130;24.732;2022-12-07T07:03:41;99604.69;;;7.83;90.69
5755;BME280;2902;42.130;24.732;2022-12-07T07:06:10;99603.03;;;7.82;90.14
5755;BME280;2902;42.130;24.732;2022-12-07T07:08:37;99579.34;;;7.66;89.77
5755;BME280;2902;42.130;24.732;2022-12-07T07:11:04;99586.59;;;7.72;91.73
5755;BME280;2902;42.130;24.732;2022-12-07T07:13:31;99609.22;;;7.97;91.25
5755;BME280;2902;42.130;24.732;2022-12-07T07:15:58;99611.81;;;8.05;89.75
5755;BME280;2902;42.130;24.732;2022-12-07T07:18:25;99611.47;;;8.08;89.81
5755;BME280;2902;42.130;24.732;2022-12-07T07:20:53;99608.63;;;8.09;89.53
5755;BME280;2902;42.130;24.732;2022-12-07T07:23:21;99613.56;;;8.12;89.80
5755;BME280;2902;42.130;24.732;2022-12-07T07:25:48;99620.97;;;8.17;89.74
5755;BME280;2902;42.130;24.732;2022-12-07T07:28:16;99619.97;;;8.18;88.97
5755;BME280;2902;42.130;24.732;2022-12-07T07:30:42;99615.31;;;8.20;89.97
5755;BME280;2902;42.130;24.732;2022-12-07T07:33:10;99609.69;;;8.23;89.51
5755;BME280;2902;42.130;24.732;2022-12-07T07:35:37;99611.59;;;8.37;90.03
5755;BME280;2902;42.130;24.732;2022-12-07T07:38:04;99609.94;;;8.50;89.44
5755;BME280;2902;42.130;24.732;2022-12-07T07:40:32;99620.56;;;8.65;89.21
5755;BME280;2902;42.130;24.732;2022-12-07T07:42:59;99621.50;;;8.72;87.73
5755;BME280;2902;42.130;24.732;2022-12-07T07:45:27;99627.53;;;8.66;87.69
5755;BME280;2902;42.130;24.732;2022-12-07T07:47:54;99632.44;;;8.69;88.06
5755;BME280;2902;42.130;24.732;2022-12-07T07:50:21;99631.66;;;8.83;87.61
5755;BME280;2902;42.130;24.732;2022-12-07T07:52:48;99628.81;;;8.99;87.61
5755;BME280;2902;42.130;24.732;2022-12-07T07:55:15;99634.19;;;9.34;93.03
5755;BME280;2902;42.130;24.732;2022-12-07T07:57:43;99632.25;;;9.43;88.25
5755;BME280;2902;42.130;24.732;2022-12-07T08:00:12;99627.75;;;9.58;87.32
5755;BME280;2902;42.130;24.732;2022-12-07T08:02:39;99626.25;;;9.70;85.12
5755;BME280;2902;42.130;24.732;2022-12-07T08:05:08;99628.13;;;9.90;85.23
5755;BME280;2902;42.130;24.732;2022-12-07T08:07:35;99627.72;;;10.08;83.42
5755;BME280;2902;42.130;24.732;2022-12-07T08:10:02;99629.59;;;10.35;83.12
5755;BME280;2902;42.130;24.732;2022-12-07T08:12:29;99627.16;;;10.61;82.46
5755;BME280;2902;42.130;24.732;2022-12-07T08:14:57;99633.72;;;10.92;81.59
5755;BME280;2902;42.130;24.732;2022-12-07T08:17:23;99638.22;;;11.26;79.83
5755;BME280;2902;42.130;24.732;2022-12-07T08:19:50;99642.50;;;11.61;78.63
5755;BME280;2902;42.130;24.732;2022-12-07T08:22:17;99647.72;;;11.95;76.20
5755;BME280;2902;42.130;24.732;2022-12-07T08:24:44;99647.38;;;12.24;75.95
5755;BME280;2902;42.130;24.732;2022-12-07T08:27:12;99624.25;;;12.31;74.78
5755;BME280;2902;42.130;24.732;2022-12-07T08:29:39;99649.06;;;12.64;73.69
5755;BME280;2902;42.130;24.732;2022-12-07T08:32:07;99641.66;;;12.86;72.68
5755;BME280;2902;42.130;24.732;2022-12-07T08:34:34;99654.13;;;13.24;71.79
5755;BME280;2902;42.130;24.732;2022-12-07T08:37:01;99654.88;;;13.57;70.68
5755;BME280;2902;42.130;24.732;2022-12-07T08:39:27;99658.63;;;13.87;69.11
5755;BME280;2902;42.130;24.732;2022-12-07T08:41:54;99657.00;;;13.86;67.78
5755;BME280;2902;42.130;24.732;2022-12-07T08:44:21;99655.34;;;13.85;68.63
5755;BME280;2902;42.130;24.732;2022-12-07T08:46:50;99644.56;;;14.05;67.97
5755;BME280;2902;42.130;24.732;2022-12-07T08:49:21;99629.09;;;14.13;68.03
5755;BME280;2902;42.130;24.732;2022-12-07T08:51:50;99636.09;;;14.45;67.84
5755;BME280;2902;42.130;24.732;2022-12-07T08:54:17;99639.09;;;14.80;66.73
5755;BME280;2902;42.130;24.732;2022-12-07T08:56:46;99635.94;;;14.89;65.65
5755;BME280;2902;42.130;24.732;2022-12-07T08:59:15;99637.72;;;14.95;66.62
5755;BME280;2902;42.130;24.732;2022-12-07T09:01:44;99633.78;;;14.98;65.95
5755;BME280;2902;42.130;24.732;2022-12-07T09:04:11;99637.47;;;15.21;63.77
5755;BME280;2902;42.130;24.732;2022-12-07T09:06:39;99628.06;;;15.12;64.42
5755;BME280;2902;42.130;24.732;2022-12-07T09:09:06;99618.56;;;14.98;64.74
5755;BME280;2902;42.130;24.732;2022-12-07T09:11:33;99609.31;;;14.76;65.46
5755;BME280;2902;42.130;24.732;2022-12-07T09:14:00;99604.53;;;14.60;66.12
5755;BME280;2902;42.130;24.732;2022-12-07T09:16:27;99594.81;;;14.66;67.03
5755;BME280;2902;42.130;24.732;2022-12-07T09:18:54;99599.75;;;14.87;65.64
5755;BME280;2902;42.130;24.732;2022-12-07T09:21:20;99598.19;;;14.97;63.64
5755;BME280;2902;42.130;24.732;2022-12-07T09:23:48;99584.78;;;14.79;64.89
5755;BME280;2902;42.130;24.732;2022-12-07T09:26:15;99579.50;;;14.73;64.93
5755;BME280;2902;42.130;24.732;2022-12-07T09:28:42;99590.13;;;14.79;65.21
5755;BME280;2902;42.130;24.732;2022-12-07T09:31:08;99580.13;;;14.93;64.51
5755;BME280;2902;42.130;24.732;2022-12-07T09:33:35;99584.53;;;15.05;63.29
5755;BME280;2902;42.130;24.732;2022-12-07T09:36:03;99579.78;;;15.25;63.16
5755;BME280;2902;42.130;24.732;2022-12-07T09:38:31;99579.13;;;15.48;60.44
5755;BME280;2902;42.130;24.732;2022-12-07T09:41:04;99586.59;;;15.57;59.82
5755;BME280;2902;42.130;24.732;2022-12-07T09:43:31;99578.41;;;15.70;59.15
5755;BME280;2902;42.130;24.732;2022-12-07T09:45:57;99570.69;;;15.62;58.41
5755;BME280;2902;42.130;24.732;2022-12-07T09:48:29;99569.50;;;15.58;59.58
5755;BME280;2902;42.130;24.732;2022-12-07T09:50:58;99553.72;;;15.32;59.89
5755;BME280;2902;42.130;24.732;2022-12-07T09:53:28;99516.13;;;15.45;78.44
5755;BME280;2902;42.130;24.732;2022-12-07T09:55:57;99539.78;;;15.89;65.09
5755;BME280;2902;42.130;24.732;2022-12-07T09:58:27;99545.91;;;16.08;61.46
5755;BME280;2902;42.130;24.732;2022-12-07T10:00:56;99562.25;;;16.30;59.38
5755;BME280;2902;42.130;24.732;2022-12-07T10:03:25;99555.94;;;16.24;58.61
5755;BME280;2902;42.130;24.732;2022-12-07T10:05:52;99559.69;;;16.35;58.06
5755;BME280;2902;42.130;24.732;2022-12-07T10:08:19;99563.88;;;16.31;57.28
5755;BME280;2902;42.130;24.732;2022-12-07T10:10:50;99548.47;;;16.15;57.95
5755;BME280;2902;42.130;24.732;2022-12-07T10:13:21;99553.47;;;16.00;58.16
5755;BME280;2902;42.130;24.732;2022-12-07T10:15:51;99544.84;;;16.09;57.64
5755;BME280;2902;42.130;24.732;2022-12-07T10:18:30;99541.59;;;16.07;57.34
5755;BME280;2902;42.130;24.732;2022-12-07T10:21:03;99545.31;;;16.06;57.35
5755;BME280;2902;42.130;24.732;2022-12-07T10:23:30;99532.84;;;16.00;57.39
5755;BME280;2902;42.130;24.732;2022-12-07T10:25:57;99522.00;;;15.95;57.88
5755;BME280;2902;42.130;24.732;2022-12-07T10:28:33;99516.66;;;16.07;58.28
5755;BME280;2902;42.130;24.732;2022-12-07T10:31:15;99517.97;;;16.16;56.42
5755;BME280;2902;42.130;24.732;2022-12-07T10:33:49;99507.59;;;16.08;56.86
5755;BME280;2902;42.130;24.732;2022-12-07T10:36:20;99508.81;;;15.93;57.88
5755;BME280;2902;42.130;24.732;2022-12-07T10:38:49;99504.28;;;15.94;57.77
5755;BME280;2902;42.130;24.732;2022-12-07T10:41:16;99506.75;;;15.96;58.58
5755;BME280;2902;42.130;24.732;2022-12-07T10:43:49;99515.81;;;15.94;59.37
5755;BME280;2902;42.130;24.732;2022-12-07T10:49:53;99499.53;;;16.08;58.17
5755;BME280;2902;42.130;24.732;2022-12-07T10:52:36;99511.09;;;16.20;58.10
5755;BME280;2902;42.130;24.732;2022-12-07T10:55:16;99511.22;;;16.25;57.90
5755;BME280;2902;42.130;24.732;2022-12-07T10:57:55;99510.03;;;16.21;56.35
5755;BME280;2902;42.130;24.732;2022-12-07T11:00:30;99508.88;;;16.17;57.31
5755;BME280;2902;42.130;24.732;2022-12-07T11:03:28;99507.25;;;16.16;56.83
5755;BME280;2902;42.130;24.732;2022-12-07T11:06:03;99501.41;;;16.19;57.90
5755;BME280;2902;42.130;24.732;2022-12-07T11:08:42;99499.53;;;16.08;57.62
5755;BME280;2902;42.130;24.732;2022-12-07T11:11:14;99483.09;;;15.93;58.48
5755;BME280;2902;42.130;24.732;2022-12-07T11:13:50;99482.47;;;15.79;59.25
5755;BME280;2902;42.130;24.732;2022-12-07T11:16:24;99489.97;;;15.59;58.78
5755;BME280;2902;42.130;24.732;2022-12-07T11:19:11;99473.75;;;15.24;60.89
5755;BME280;2902;42.130;24.732;2022-12-07T11:21:49;99478.09;;;15.25;60.77
5755;BME280;2902;42.130;24.732;2022-12-07T11:24:27;99470.72;;;15.21;61.16
5755;BME280;2902;42.130;24.732;2022-12-07T11:27:06;99459.19;;;15.20;60.92
5755;BME280;2902;42.130;24.732;2022-12-07T11:30:02;99459.28;;;15.14;61.04
5755;BME280;2902;42.130;24.732;2022-12-07T11:32:44;99453.22;;;15.07;60.68
5755;BME280;2902;42.130;24.732;2022-12-07T11:35:21;99453.00;;;14.90;61.26
5755;BME280;2902;42.130;24.732;2022-12-07T11:37:57;99461.16;;;14.95;62.41
5755;BME280;2902;42.130;24.732;2022-12-07T11:40:29;99445.84;;;15.02;61.67
5755;BME280;2902;42.130;24.732;2022-12-07T11:43:02;99446.91;;;15.01;61.46
5755;BME280;2902;42.130;24.732;2022-12-07T11:45:33;99445.19;;;14.89;62.09
5755;BME280;2902;42.130;24.732;2022-12-07T11:48:01;99444.63;;;14.69;63.15
5755;BME280;2902;42.130;24.732;2022-12-07T11:50:33;99437.06;;;14.66;63.32
5755;BME280;2902;42.130;24.732;2022-12-07T11:53:05;99418.13;;;14.49;63.41
5755;BME280;2902;42.130;24.732;2022-12-07T11:55:43;99424.22;;;14.56;63.85
5755;BME280;2902;42.130;24.732;2022-12-07T11:58:22;99413.75;;;14.55;64.51
5755;BME280;2902;42.130;24.732;2022-12-07T12:01:00;99427.25;;;14.60;63.84
5755;BME280;2902;42.130;24.732;2022-12-07T12:03:34;99421.06;;;14.59;64.32
5755;BME280;2902;42.130;24.732;2022-12-07T12:06:02;99417.59;;;14.59;64.18
5755;BME280;2902;42.130;24.732;2022-12-07T12:08:32;99415.59;;;14.36;64.38
5755;BME280;2902;42.130;24.732;2022-12-07T12:11:10;99401.16;;;14.19;65.59
5755;BME280;2902;42.130;24.732;2022-12-07T12:16:51;99403.66;;;14.21;65.68
5755;BME280;2902;42.130;24.732;2022-12-07T12:19:28;99403.19;;;14.24;65.79
5755;BME280;2902;42.130;24.732;2022-12-07T12:22:07;99405.19;;;14.28;65.91
5755;BME280;2902;42.130;24.732;2022-12-07T12:24:40;99403.09;;;14.30;65.30
5755;BME280;2902;42.130;24.732;2022-12-07T12:27:09;99401.03;;;14.32;65.57
5755;BME280;2902;42.130;24.732;2022-12-07T12:29:43;99398.59;;;14.31;66.08
5755;BME280;2902;42.130;24.732;2022-12-07T12:32:14;99387.81;;;14.19;65.61
5755;BME280;2902;42.130;24.732;2022-12-07T12:35:00;99389.44;;;14.20;66.04
5755;BME280;2902;42.130;24.732;2022-12-07T12:37:40;99389.59;;;14.25;65.47
5755;BME280;2902;42.130;24.732;2022-12-07T12:40:43;99386.00;;;14.13;65.30
5755;BME280;2902;42.130;24.732;2022-12-07T12:43:45;99378.34;;;13.99;66.66
5755;BME280;2902;42.130;24.732;2022-12-07T12:46:48;99373.75;;;13.88;67.00
5755;BME280;2902;42.130;24.732;2022-12-07T12:49:37;99362.09;;;13.82;67.40
5755;BME280;2902;42.130;24.732;2022-12-07T12:55:17;99355.16;;;13.75;67.26
5755;BME280;2902;42.130;24.732;2022-12-07T13:03:55;99367.09;;;13.72;67.89
5755;BME280;2902;42.130;24.732;2022-12-07T13:06:33;99359.28;;;13.71;68.83
5755;BME280;2902;42.130;24.732;2022-12-07T13:09:03;99356.81;;;13.76;68.14
5755;BME280;2902;42.130;24.732;2022-12-07T13:11:33;99352.28;;;13.76;68.56
5755;BME280;2902;42.130;24.732;2022-12-07T13:14:38;99353.78;;;13.48;68.03
5755;BME280;2902;42.130;24.732;2022-12-07T13:17:08;99358.91;;;13.49;68.90
5755;BME280;2902;42.130;24.732;2022-12-07T13:19:59;99350.00;;;13.55;68.36
5755;BME280;2902;42.130;24.732;2022-12-07T13:22:50;99351.25;;;13.53;68.46
5755;BME280;2902;42.130;24.732;2022-12-07T13:25:22;99358.66;;;13.51;69.10
5755;BME280;2902;42.130;24.732;2022-12-07T13:27:55;99349.22;;;13.48;68.94
5755;BME280;2902;42.130;24.732;2022-12-07T13:30:25;99366.91;;;13.49;69.66
5755;BME280;2902;42.130;24.732;2022-12-07T13:32:54;99361.63;;;13.43;69.63
5755;BME280;2902;42.130;24.732;2022-12-07T13:35:28;99361.97;;;13.46;69.24
5755;BME280;2902;42.130;24.732;2022-12-07T13:37:54;99368.53;;;13.50;69.45
5755;BME280;2902;42.130;24.732;2022-12-07T13:40:22;99364.38;;;13.54;68.90
5755;BME280;2902;42.130;24.732;2022-12-07T13:42:57;99367.47;;;13.51;69.00
5755;BME280;2902;42.130;24.732;2022-12-07T13:45:27;99367.47;;;13.51;69.59
5755;BME280;2902;42.130;24.732;2022-12-07T13:48:14;99360.69;;;13.55;69.58
5755;BME280;2902;42.130;24.732;2022-12-07T13:50:42;99362.56;;;13.48;69.45
5755;BME280;2902;42.130;24.732;2022-12-07T13:53:12;99359.28;;;13.22;70.47
5755;BME280;2902;42.130;24.732;2022-12-07T13:55:45;99358.16;;;13.05;71.00
5755;BME280;2902;42.130;24.732;2022-12-07T13:58:13;99367.59;;;13.07;70.72